Time;durP1;ratioP1;P1;durP2;ratioP2;P2;SDS_P1;SDS_P2;PMS_P1;PMS_P2;Temp;Humidity;BMP_temperature;BMP_pressure;BME280_temperature;BME280_humidity;BME280_pressure;Samples;Min_cycle;Max_cycle;Signal;HPM_P1;HPM_P2
2023/01/07 00:00:50;;;;;;;7.03;3.83;;;;;;;10.52;61.81;95339.84;5130409;27;20188;-45
2023/01/07 00:03:17;;;;;;;3.80;3.30;;;;;;;10.50;61.87;95344.28;5130254;27;20668;-47
2023/01/07 00:05:45;;;;;;;5.73;4.27;;;;;;;10.47;62.12;95339.38;5129799;27;20608;-45
2023/01/07 00:08:12;;;;;;;7.63;3.87;;;;;;;10.45;61.79;95342.06;5130031;27;20184;-48
2023/01/07 00:10:39;;;;;;;4.90;3.77;;;;;;;10.43;61.93;95343.13;5129956;27;20688;-46
2023/01/07 00:13:06;;;;;;;6.67;4.37;;;;;;;10.42;62.11;95349.97;5130007;27;20188;-44
2023/01/07 00:15:33;;;;;;;6.43;4.30;;;;;;;10.39;61.75;95345.09;5130267;28;20188;-44
2023/01/07 00:17:59;;;;;;;6.17;4.50;;;;;;;10.35;62.12;95345.47;5130050;28;20187;-46
2023/01/07 00:20:26;;;;;;;6.50;3.97;;;;;;;10.21;62.22;95320.94;5129875;28;20188;-48
2023/01/07 00:22:54;;;;;;;7.07;4.60;;;;;;;10.31;62.04;95352.56;5129102;28;20193;-44
2023/01/07 00:25:21;;;;;;;10.90;4.77;;;;;;;10.27;62.15;95346.84;5129902;28;20212;-45
2023/01/07 00:27:48;;;;;;;7.23;4.63;;;;;;;10.25;62.11;95341.06;5130032;28;20188;-45
2023/01/07 00:30:15;;;;;;;7.97;4.23;;;;;;;10.17;62.16;95337.44;5130077;28;20188;-46
2023/01/07 00:32:56;;;;;;;5.67;4.43;;;;;;;10.19;62.21;95344.09;5130298;28;20195;-49
2023/01/07 00:35:23;;;;;;;6.37;4.57;;;;;;;10.16;62.33;95346.06;5130121;28;20199;-45
2023/01/07 00:37:51;;;;;;;6.40;4.17;;;;;;;10.06;62.25;95335.75;5131211;28;20191;-46
2023/01/07 00:40:19;;;;;;;7.93;5.07;;;;;;;10.09;62.37;95342.34;5132861;28;20239;-47
2023/01/07 00:43:00;;;;;;;6.70;5.00;;;;;;;10.08;62.27;95343.28;5132601;28;20256;-45
2023/01/07 00:45:28;;;;;;;8.30;5.00;;;;;;;10.03;62.34;95344.44;5129662;28;20223;-46
2023/01/07 00:47:55;;;;;;;10.20;5.53;;;;;;;10.01;62.28;95359.06;5129711;28;20276;-44
2023/01/07 00:50:24;;;;;;;7.50;5.27;;;;;;;9.95;62.27;95346.78;5130780;27;20221;-46
2023/01/07 00:52:51;;;;;;;6.50;5.07;;;;;;;9.95;62.41;95364.66;5133593;27;20176;-45
2023/01/07 00:55:19;;;;;;;9.70;5.70;;;;;;;9.93;62.40;95361.44;5133998;27;20187;-46
2023/01/07 00:57:46;;;;;;;8.53;5.83;;;;;;;9.90;62.47;95359.09;5133516;27;20201;-45
2023/01/07 01:00:16;;;;;;;6.77;4.97;;;;;;;9.89;62.57;95369.44;5133149;27;20793;-43
2023/01/07 01:02:43;;;;;;;9.13;5.50;;;;;;;9.85;62.47;95373.16;5133393;27;20200;-45
2023/01/07 01:05:11;;;;;;;8.57;5.30;;;;;;;9.83;62.50;95373.25;5132736;27;20700;-48
2023/01/07 01:07:38;;;;;;;8.37;4.87;;;;;;;9.79;62.43;95367.56;5133426;27;20180;-44
2023/01/07 01:10:07;;;;;;;10.40;5.23;;;;;;;9.77;62.63;95369.44;5133419;27;20193;-45
2023/01/07 01:12:36;;;;;;;8.13;5.23;;;;;;;9.75;62.66;95368.72;5133169;27;20191;-50
2023/01/07 01:15:06;;;;;;;10.17;5.10;;;;;;;9.72;62.65;95368.97;5133254;27;20177;-46
2023/01/07 01:17:32;;;;;;;10.13;5.90;;;;;;;9.67;62.74;95365.97;5132995;27;20188;-48
2023/01/07 01:19:59;;;;;;;9.13;6.03;;;;;;;9.67;62.88;95368.50;5132828;27;20203;-45
2023/01/07 01:22:26;;;;;;;7.77;5.40;;;;;;;9.46;62.62;95345.41;5133170;27;20198;-50
2023/01/07 01:24:53;;;;;;;8.70;5.30;;;;;;;9.62;62.77;95368.03;5133127;27;20200;-47
2023/01/07 01:27:20;;;;;;;8.20;5.83;;;;;;;9.61;62.72;95370.69;5133159;27;20591;-47
2023/01/07 01:29:48;;;;;;;8.30;6.03;;;;;;;9.58;62.69;95374.28;5132680;27;20188;-51
2023/01/07 01:32:15;;;;;;;7.83;5.40;;;;;;;9.56;62.98;95378.69;5133453;27;20188;-56
2023/01/07 01:34:42;;;;;;;15.23;5.97;;;;;;;9.54;63.00;95371.16;5132240;27;20248;-45
2023/01/07 01:37:09;;;;;;;8.20;6.40;;;;;;;9.52;62.88;95372.19;5133012;27;20368;-51
2023/01/07 01:39:35;;;;;;;9.50;5.90;;;;;;;9.51;62.93;95371.38;5132451;27;20215;-50
2023/01/07 01:42:02;;;;;;;9.07;6.23;;;;;;;9.51;62.95;95370.56;5132874;27;20585;-45
2023/01/07 01:44:45;;;;;;;9.23;6.53;;;;;;;9.37;62.75;95353.75;5132360;27;20232;-45
2023/01/07 01:47:20;;;;;;;9.90;6.77;;;;;;;9.41;62.91;95362.81;5132489;27;20197;-44
2023/01/07 01:49:53;;;;;;;9.37;6.80;;;;;;;9.37;63.11;95345.25;5132311;27;20610;-47
2023/01/07 01:52:24;;;;;;;11.13;6.97;;;;;;;9.45;63.09;95369.28;5132707;27;20687;-47
2023/01/07 01:54:55;;;;;;;9.93;6.77;;;;;;;9.43;63.00;95363.47;5132936;27;20185;-45
2023/01/07 01:57:23;;;;;;;8.23;6.40;;;;;;;9.33;63.01;95352.34;5132395;27;20656;-43
2023/01/07 01:59:51;;;;;;;11.23;6.73;;;;;;;9.39;63.17;95358.72;5132075;27;20324;-44
2023/01/07 02:02:24;;;;;;;8.60;7.07;;;;;;;9.36;63.15;95352.09;5131454;27;20275;-45
2023/01/07 02:04:52;;;;;;;12.33;7.40;;;;;;;9.28;63.15;95339.91;5132090;27;20235;-45
2023/01/07 02:07:19;;;;;;;9.97;6.47;;;;;;;9.34;63.14;95353.16;5132331;27;20199;-45
2023/01/07 02:09:50;;;;;;;11.60;7.00;;;;;;;9.30;63.31;95348.25;5132009;27;20199;-44
2023/01/07 02:12:28;;;;;;;11.73;6.97;;;;;;;9.29;62.94;95345.84;5132179;27;20218;-48
2023/01/07 02:15:08;;;;;;;11.77;6.97;;;;;;;9.25;63.13;95336.78;5132016;27;20184;-47
2023/01/07 02:17:47;;;;;;;11.20;7.07;;;;;;;9.25;63.24;95350.34;5131742;27;20652;-46
2023/01/07 02:20:28;;;;;;;10.60;7.07;;;;;;;9.24;63.26;95348.72;5131911;27;20192;-45
2023/01/07 02:23:25;;;;;;;11.77;6.70;;;;;;;9.23;63.29;95344.53;5131896;27;20210;-45
2023/01/07 02:26:14;;;;;;;8.93;7.20;;;;;;;9.19;63.24;95340.56;5131139;27;20226;-48
2023/01/07 02:29:13;;;;;;;12.77;7.40;;;;;;;9.18;63.49;95344.06;5131273;27;20184;-44
2023/01/07 02:32:08;;;;;;;13.23;7.53;;;;;;;9.15;63.23;95341.72;5131551;27;20193;-45
2023/01/07 02:34:45;;;;;;;11.63;7.40;;;;;;;9.11;63.39;95348.00;5131906;27;20192;-44
2023/01/07 02:37:17;;;;;;;11.43;7.03;;;;;;;9.10;63.65;95338.69;5131552;27;20245;-50
2023/01/07 02:39:54;;;;;;;10.70;6.97;;;;;;;9.11;63.59;95347.16;5131227;27;20738;-47
2023/01/07 02:42:27;;;;;;;11.47;7.10;;;;;;;9.10;63.63;95343.81;5131416;27;20593;-45
2023/01/07 02:45:01;;;;;;;9.67;6.97;;;;;;;9.10;63.54;95343.00;5131383;27;20279;-45
2023/01/07 02:47:34;;;;;;;11.10;7.60;;;;;;;9.08;63.55;95348.22;5131453;27;20555;-45
2023/01/07 02:50:00;;;;;;;11.03;6.97;;;;;;;9.09;63.54;95349.03;5131519;27;20188;-51
2023/01/07 02:52:31;;;;;;;12.53;7.63;;;;;;;9.08;63.52;95347.41;5131520;27;20187;-46
2023/01/07 02:55:03;;;;;;;11.03;6.80;;;;;;;9.05;63.93;95354.34;5131546;27;20261;-47
2023/01/07 02:58:14;;;;;;;9.67;6.70;;;;;;;9.05;63.57;95346.69;5130912;27;20189;-51
2023/01/07 03:01:01;;;;;;;11.43;7.83;;;;;;;9.03;63.65;95345.19;5007429;28;20201;-44
2023/01/07 03:03:42;;;;;;;14.37;7.13;;;;;;;8.57;63.46;95286.53;5008249;28;20207;-48
2023/01/07 03:06:26;;;;;;;11.20;7.37;;;;;;;9.00;63.53;95358.16;5008400;28;20287;-47
2023/01/07 03:09:04;;;;;;;14.07;6.93;;;;;;;8.99;63.72;95354.00;5009749;28;20711;-46
2023/01/07 03:11:37;;;;;;;16.00;7.33;;;;;;;8.97;63.57;95353.28;5009386;28;20200;-44
2023/01/07 03:14:14;;;;;;;9.23;6.80;;;;;;;8.95;63.64;95348.31;5007895;28;20199;-46
2023/01/07 03:16:47;;;;;;;11.30;7.33;;;;;;;8.46;63.58;95284.72;5007978;28;20198;-52
2023/01/07 03:19:20;;;;;;;10.17;6.70;;;;;;;8.93;63.77;95354.44;4989362;28;20193;-47
2023/01/07 03:21:48;;;;;;;12.40;7.10;;;;;;;8.91;63.82;95351.19;4987982;28;20185;-46
2023/01/07 03:24:16;;;;;;;14.53;8.13;;;;;;;8.90;63.72;95350.38;4987926;28;20189;-50
2023/01/07 03:26:46;;;;;;;14.00;7.37;;;;;;;8.83;63.65;95340.72;4987780;28;20366;-43
2023/01/07 03:29:16;;;;;;;12.00;7.00;;;;;;;8.87;63.64;95353.16;4987961;28;20660;-51
2023/01/07 03:31:51;;;;;;;11.93;6.93;;;;;;;8.78;63.59;95333.41;4987927;28;20189;-45
2023/01/07 03:34:22;;;;;;;10.17;6.90;;;;;;;8.91;63.68;95351.19;5007507;28;20191;-47
2023/01/07 03:36:52;;;;;;;9.77;6.77;;;;;;;8.92;63.55;95350.25;5033802;28;20193;-52
2023/01/07 03:39:22;;;;;;;12.50;7.90;;;;;;;8.92;63.68;95353.63;5110014;28;21043;-47
2023/01/07 03:44:33;;;;;;;9.00;6.87;;;;;;;8.94;63.61;95358.63;5118184;27;20257;-46
2023/01/07 03:47:00;;;;;;;9.60;7.67;;;;;;;8.95;63.60;95361.06;5129907;27;20634;-43
2023/01/07 03:49:29;;;;;;;10.23;7.17;;;;;;;8.96;63.51;95359.31;5130205;27;20181;-47
2023/01/07 03:51:55;;;;;;;10.90;7.10;;;;;;;8.97;63.62;95358.38;5130167;27;20191;-50
2023/01/07 03:54:23;;;;;;;14.57;7.77;;;;;;;8.53;63.55;95285.91;5130331;27;20192;-45
2023/01/07 03:56:50;;;;;;;8.30;6.03;;;;;;;8.96;63.48;95359.31;5130335;27;20714;-43
2023/01/07 03:59:16;;;;;;;11.00;7.23;;;;;;;9.00;63.45;95368.38;5130076;27;20249;-42
2023/01/07 04:01:43;;;;;;;13.10;7.63;;;;;;;8.95;63.42;95365.34;5129796;27;20184;-42
2023/01/07 04:04:10;;;;;;;14.03;8.20;;;;;;;9.04;63.38;95374.88;5129934;27;20180;-46
2023/01/07 04:06:38;;;;;;;13.57;7.50;;;;;;;9.05;63.32;95371.41;5130222;27;20220;-45
2023/01/07 04:09:08;;;;;;;12.13;7.30;;;;;;;9.08;63.24;95378.84;5130146;27;20199;-44
2023/01/07 04:11:35;;;;;;;11.07;6.80;;;;;;;8.96;63.34;95356.78;5130297;27;20256;-44
2023/01/07 04:14:01;;;;;;;11.13;7.00;;;;;;;9.08;63.21;95378.84;5130100;27;20280;-47
2023/01/07 04:16:28;;;;;;;9.53;6.17;;;;;;;9.13;62.98;95379.31;5129820;28;20180;-48
2023/01/07 04:18:55;;;;;;;11.13;7.33;;;;;;;9.14;63.12;95372.47;5129592;28;20199;-44
2023/01/07 04:21:22;;;;;;;12.10;6.83;;;;;;;9.09;63.15;95364.34;5130008;28;20189;-46
2023/01/07 04:23:50;;;;;;;13.90;6.63;;;;;;;9.20;63.16;95383.06;5129802;28;20184;-44
2023/01/07 04:26:17;;;;;;;11.27;7.23;;;;;;;9.00;63.09;95342.88;5132842;27;20699;-50
2023/01/07 04:28:43;;;;;;;8.73;6.50;;;;;;;9.24;63.11;95379.34;5133789;27;20176;-47
2023/01/07 04:31:10;;;;;;;10.63;6.97;;;;;;;9.27;63.08;95379.09;5133722;27;20204;-46
2023/01/07 04:33:37;;;;;;;9.73;6.60;;;;;;;9.29;62.76;95372.16;5135321;27;20180;-48
2023/01/07 04:36:04;;;;;;;11.23;7.07;;;;;;;9.35;63.27;95388.75;5134698;27;20605;-45
2023/01/07 04:38:31;;;;;;;12.47;7.17;;;;;;;9.32;62.82;95381.31;5134190;27;20188;-47
2023/01/07 04:40:59;;;;;;;9.97;6.57;;;;;;;9.40;62.93;95388.41;5133856;27;20731;-48
2023/01/07 04:43:26;;;;;;;11.37;6.80;;;;;;;9.39;62.61;95387.63;5134576;27;20184;-47
2023/01/07 04:45:53;;;;;;;9.00;6.43;;;;;;;9.45;62.87;95394.00;5133396;27;20284;-49
2023/01/07 04:48:20;;;;;;;12.10;7.07;;;;;;;9.47;62.77;95392.97;5133878;27;20660;-46
2023/01/07 04:50:47;;;;;;;12.30;6.60;;;;;;;9.48;62.74;95392.03;5133366;27;20664;-43
2023/01/07 04:53:13;;;;;;;11.67;7.23;;;;;;;9.48;62.74;95383.56;5134140;27;20260;-46
2023/01/07 04:55:40;;;;;;;10.60;6.87;;;;;;;9.52;62.45;95395.97;5133741;27;20679;-45
2023/01/07 04:58:08;;;;;;;6.97;5.67;;;;;;;9.54;62.62;95394.16;5138065;27;20195;-45
2023/01/07 05:00:35;;;;;;;9.87;6.47;;;;;;;9.53;62.53;95391.69;5136256;27;20682;-46
2023/01/07 05:03:02;;;;;;;9.37;6.07;;;;;;;9.59;62.49;95395.56;5134248;27;20181;-45
2023/01/07 05:05:29;;;;;;;8.63;6.37;;;;;;;9.60;62.47;95397.16;5133685;27;20595;-48
2023/01/07 05:07:55;;;;;;;9.83;6.63;;;;;;;9.58;62.42;95394.72;5133616;27;20188;-48
2023/01/07 05:10:22;;;;;;;8.33;5.37;;;;;;;9.50;62.37;95374.06;5133621;27;20192;-46
2023/01/07 05:12:49;;;;;;;8.47;6.13;;;;;;;9.63;62.49;95391.81;5133565;27;20257;-45
2023/01/07 05:15:17;;;;;;;10.07;6.17;;;;;;;9.63;62.52;95387.53;5132675;27;20196;-46
2023/01/07 05:17:44;;;;;;;9.73;6.30;;;;;;;9.63;62.63;95392.66;5132646;27;20560;-48
2023/01/07 05:20:12;;;;;;;8.87;5.73;;;;;;;9.61;62.55;95386.81;5133093;27;20664;-48
2023/01/07 05:22:39;;;;;;;9.83;6.07;;;;;;;9.62;62.65;95398.66;5132920;27;20237;-46
2023/01/07 05:25:07;;;;;;;10.10;6.93;;;;;;;9.61;62.64;95399.59;5132835;27;20191;-51
2023/01/07 05:27:34;;;;;;;11.53;6.23;;;;;;;9.59;62.38;95401.47;5133185;27;20208;-50
2023/01/07 05:30:00;;;;;;;9.70;6.13;;;;;;;9.57;62.42;95400.75;5132428;27;20204;-45
2023/01/07 05:32:29;;;;;;;11.70;6.73;;;;;;;9.54;62.50;95403.53;5132705;27;20197;-47
2023/01/07 05:34:56;;;;;;;11.17;7.10;;;;;;;9.57;62.74;95405.03;5132977;27;20188;-48
2023/01/07 05:37:23;;;;;;;11.93;6.90;;;;;;;9.54;62.41;95412.03;5132788;27;20189;-50
2023/01/07 05:39:50;;;;;;;11.97;6.97;;;;;;;9.53;62.66;95409.56;5132729;27;20232;-46
2023/01/07 05:42:17;;;;;;;10.87;6.27;;;;;;;9.51;62.73;95412.25;5132773;27;20180;-50
2023/01/07 05:44:44;;;;;;;11.27;6.60;;;;;;;9.50;62.63;95409.81;5132310;27;20688;-48
2023/01/07 05:47:11;;;;;;;10.77;7.40;;;;;;;9.48;62.83;95404.00;5132775;27;20208;-47
2023/01/07 05:49:40;;;;;;;9.67;6.57;;;;;;;9.48;62.50;95402.25;5132626;27;20188;-45
2023/01/07 05:52:08;;;;;;;9.60;6.70;;;;;;;9.40;62.79;95396.06;5132822;27;20192;-44
2023/01/07 05:54:34;;;;;;;11.97;7.63;;;;;;;9.45;62.84;95399.91;5133021;27;20200;-42
2023/01/07 05:57:01;;;;;;;9.93;6.93;;;;;;;9.43;62.84;95411.19;5132671;27;20272;-46
2023/01/07 05:59:28;;;;;;;11.50;7.23;;;;;;;9.41;63.00;95413.00;5132270;27;20694;-50
2023/01/07 06:01:55;;;;;;;12.90;7.03;;;;;;;9.39;62.71;95407.22;5132525;27;20184;-44
2023/01/07 06:04:22;;;;;;;9.13;6.67;;;;;;;9.37;62.82;95411.63;5133036;27;20252;-44
2023/01/07 06:06:50;;;;;;;12.23;7.70;;;;;;;9.35;62.79;95411.72;5132650;27;20215;-46
2023/01/07 06:09:16;;;;;;;11.77;7.83;;;;;;;9.36;62.90;95420.19;5132388;27;20208;-44
2023/01/07 06:11:44;;;;;;;13.23;8.03;;;;;;;9.33;62.75;95418.72;5132436;27;20200;-44
2023/01/07 06:14:11;;;;;;;12.93;8.73;;;;;;;9.37;62.86;95425.22;5131918;27;20210;-45
2023/01/07 06:16:38;;;;;;;13.97;8.07;;;;;;;9.36;62.85;95418.47;5132323;27;20192;-43
2023/01/07 06:19:04;;;;;;;12.23;8.13;;;;;;;9.41;62.77;95416.41;5132099;27;20176;-44
2023/01/07 06:21:31;;;;;;;14.77;9.17;;;;;;;9.47;62.68;95430.44;5131679;27;20193;-42
2023/01/07 06:23:59;;;;;;;14.37;9.37;;;;;;;9.50;62.73;95427.69;5132333;27;20184;-46
2023/01/07 06:26:26;;;;;;;19.73;9.50;;;;;;;9.58;62.44;95420.25;5131285;27;20227;-44
2023/01/07 06:28:53;;;;;;;15.00;9.80;;;;;;;9.73;61.92;95413.19;5131779;27;20191;-45
2023/01/07 06:31:20;;;;;;;17.10;10.33;;;;;;;10.03;61.43;95421.09;5131421;27;20603;-44
2023/01/07 06:33:47;;;;;;;15.63;10.10;;;;;;;10.35;61.12;95422.97;5132389;27;20199;-48
2023/01/07 06:36:13;;;;;;;15.30;9.90;;;;;;;10.71;60.90;95429.53;5132347;27;20180;-46
2023/01/07 06:38:41;;;;;;;17.00;9.83;;;;;;;11.13;60.73;95431.38;5131938;27;20211;-44
2023/01/07 06:41:09;;;;;;;18.07;10.47;;;;;;;11.59;60.98;95427.66;5131303;27;20263;-45
2023/01/07 06:43:36;;;;;;;17.83;11.13;;;;;;;12.04;60.76;95421.28;5131473;27;20641;-44
2023/01/07 06:46:03;;;;;;;14.10;9.53;;;;;;;12.60;60.93;95432.00;5130499;27;20196;-46
2023/01/07 06:48:29;;;;;;;16.50;10.30;;;;;;;13.14;60.69;95428.16;5131032;27;20589;-43
2023/01/07 06:50:56;;;;;;;16.33;11.00;;;;;;;13.68;60.07;95419.06;5131457;27;20195;-45
2023/01/07 06:53:23;;;;;;;16.80;11.13;;;;;;;14.23;59.80;95427.69;5131062;27;20213;-43
2023/01/07 06:55:50;;;;;;;16.03;10.67;;;;;;;14.82;59.26;95423.09;5131141;27;20177;-45
2023/01/07 06:58:19;;;;;;;14.07;9.97;;;;;;;15.35;58.59;95430.00;5124360;27;20197;-44
2023/01/07 07:00:46;;;;;;;8.80;5.67;;;;;;;15.99;74.62;95428.06;5122862;27;20188;-45
2023/01/07 07:03:12;;;;;;;10.07;5.53;;;;;;;16.95;80.79;95428.63;5128371;27;20200;-46
2023/01/07 07:05:39;;;;;;;12.30;5.80;;;;;;;17.87;77.63;95420.72;5128496;27;20199;-44
2023/01/07 07:08:06;;;;;;;7.43;5.30;;;;;;;18.69;74.53;95434.22;5128247;27;20216;-45
2023/01/07 07:10:34;;;;;;;9.73;5.97;;;;;;;19.42;71.96;95444.16;5128290;27;20196;-47
2023/01/07 07:13:01;;;;;;;12.47;6.53;;;;;;;20.00;68.19;95429.75;5127710;27;20188;-45
2023/01/07 07:15:29;;;;;;;9.97;6.03;;;;;;;20.50;65.06;95436.03;5128343;27;20195;-45
2023/01/07 07:17:56;;;;;;;11.63;6.50;;;;;;;20.91;63.06;95432.94;5128308;27;20207;-48
2023/01/07 07:20:22;;;;;;;10.33;6.30;;;;;;;21.26;61.39;95431.31;5128267;27;20182;-43
2023/01/07 07:22:49;;;;;;;14.33;6.17;;;;;;;21.59;60.35;95441.25;5128002;27;20559;-42
2023/01/07 07:25:16;;;;;;;15.50;6.50;;;;;;;21.88;58.80;95442.84;5128247;27;20195;-46
2023/01/07 07:27:45;;;;;;;10.27;6.22;;;;;;;22.13;57.63;95438.06;5128320;27;20239;-44
2023/01/07 07:30:13;;;;;;;10.43;6.07;;;;;;;22.37;56.40;95447.22;5128006;27;20588;-51
2023/01/07 07:32:42;;;;;;;9.02;6.15;;;;;;;22.59;55.81;95442.72;5127579;27;20184;-51
2023/01/07 07:35:11;;;;;;;6.82;5.72;;;;;;;22.77;55.60;95442.19;5138617;27;20199;-46
2023/01/07 07:37:39;;;;;;;11.18;6.00;;;;;;;22.94;54.73;95440.09;5128050;27;20185;-46
2023/01/07 07:40:07;;;;;;;8.40;5.80;;;;;;;23.10;53.97;95446.72;5128472;27;20231;-48
2023/01/07 07:42:34;;;;;;;6.93;6.05;;;;;;;23.24;53.39;95448.41;5128190;27;20275;-48
2023/01/07 07:45:01;;;;;;;7.47;5.63;;;;;;;23.37;53.07;95445.00;5127373;27;20590;-46
2023/01/07 07:47:28;;;;;;;7.53;5.18;;;;;;;23.41;52.03;95431.34;5127068;27;20220;-51
2023/01/07 07:49:56;;;;;;;9.55;5.20;;;;;;;23.53;51.48;95442.81;5127647;27;20189;-46
2023/01/07 07:52:23;;;;;;;8.57;6.07;;;;;;;23.44;51.45;95435.34;5127486;27;20575;-44
2023/01/07 07:54:49;;;;;;;6.88;5.68;;;;;;;23.24;51.28;95438.75;5127396;27;20196;-46
2023/01/07 07:57:16;;;;;;;9.80;5.88;;;;;;;22.96;51.75;95449.31;5127729;27;20181;-46
2023/01/07 07:59:43;;;;;;;11.48;5.80;;;;;;;22.64;51.51;95445.56;5126700;27;20195;-46
2023/01/07 08:02:12;;;;;;;8.88;5.90;;;;;;;22.21;51.01;95422.28;5127335;27;20199;-45
2023/01/07 08:04:39;;;;;;;9.55;5.97;;;;;;;22.08;50.46;95447.41;5127621;27;20199;-46
2023/01/07 08:07:07;;;;;;;10.20;6.45;;;;;;;21.75;50.19;95445.38;5127830;27;20273;-49
2023/01/07 08:09:34;;;;;;;9.95;6.60;;;;;;;21.59;50.09;95449.06;5127249;27;20695;-46
2023/01/07 08:12:01;;;;;;;8.18;5.05;;;;;;;21.52;52.60;95450.78;5127199;27;20185;-46
2023/01/07 08:14:28;;;;;;;8.00;6.22;;;;;;;21.53;54.66;95450.59;5127428;27;20568;-45
2023/01/07 08:16:55;;;;;;;6.80;5.03;;;;;;;21.35;54.92;95450.22;5127363;28;20199;-47
2023/01/07 08:19:21;;;;;;;10.23;5.93;;;;;;;21.08;55.03;95449.13;5127645;28;20249;-46
2023/01/07 08:21:48;;;;;;;9.18;5.90;;;;;;;20.77;54.85;95445.00;5125830;27;20221;-47
2023/01/07 08:24:17;;;;;;;16.58;6.57;;;;;;;20.47;54.68;95449.38;5117226;27;20284;-46
2023/01/07 08:26:43;;;;;;;8.02;6.18;;;;;;;20.18;54.78;95452.78;5109511;28;20216;-45
2023/01/07 08:29:10;;;;;;;8.25;6.45;;;;;;;20.07;54.23;95421.25;5109425;28;20185;-50
2023/01/07 08:31:37;;;;;;;8.52;6.25;;;;;;;20.84;51.97;95437.25;5125827;28;20200;-47
2023/01/07 08:34:04;;;;;;;10.75;6.70;;;;;;;21.03;50.77;95451.50;5129478;28;20575;-45
2023/01/07 08:36:30;;;;;;;14.10;7.10;;;;;;;20.91;50.36;95440.75;5128618;28;20632;-47
2023/01/07 08:38:57;;;;;;;10.70;6.90;;;;;;;20.58;50.37;95447.34;5129581;28;20195;-46
2023/01/07 08:41:26;;;;;;;9.88;6.75;;;;;;;20.19;50.56;95433.63;5129174;28;20212;-47
2023/01/07 08:43:53;;;;;;;12.88;7.60;;;;;;;19.88;51.12;95448.53;5129653;28;20212;-45
2023/01/07 08:46:20;;;;;;;11.57;7.50;;;;;;;19.56;51.35;95440.03;5129752;28;20196;-46
2023/01/07 08:48:47;;;;;;;10.73;7.07;;;;;;;19.25;51.70;95433.09;5129395;28;20220;-46
2023/01/07 08:51:14;;;;;;;11.23;7.63;;;;;;;18.68;51.74;95370.44;5129641;28;20252;-46
2023/01/07 08:53:41;;;;;;;12.77;8.10;;;;;;;18.89;51.63;95430.25;5129627;28;20176;-46
2023/01/07 08:56:07;;;;;;;15.07;8.67;;;;;;;18.63;52.03;95434.91;5129596;28;20241;-46
2023/01/07 08:58:37;;;;;;;13.20;7.43;;;;;;;18.38;52.09;95431.59;5129793;28;20200;-47
2023/01/07 09:01:05;;;;;;;9.87;8.07;;;;;;;18.15;52.40;95432.31;5129757;28;20283;-46
2023/01/07 09:03:32;;;;;;;16.27;8.57;;;;;;;17.95;52.53;95436.25;5130046;28;20184;-47
2023/01/07 09:05:59;;;;;;;10.10;7.73;;;;;;;17.74;52.59;95423.81;5129944;28;20195;-45
2023/01/07 09:08:26;;;;;;;10.33;8.03;;;;;;;17.59;52.74;95422.84;5130386;28;20224;-46
2023/01/07 09:10:53;;;;;;;13.63;8.70;;;;;;;17.36;52.78;95407.16;5130153;27;20667;-46
2023/01/07 09:13:19;;;;;;;15.87;9.17;;;;;;;17.27;53.02;95414.09;5133492;27;20689;-45
2023/01/07 09:15:47;;;;;;;12.27;7.83;;;;;;;17.12;53.06;95410.56;5133261;27;20188;-49
2023/01/07 09:18:14;;;;;;;10.93;7.93;;;;;;;16.96;53.15;95398.41;5133378;27;20203;-50
2023/01/07 09:20:41;;;;;;;15.90;9.93;;;;;;;16.89;53.07;95411.19;5133269;27;20181;-48
2023/01/07 09:23:08;;;;;;;13.93;8.53;;;;;;;16.78;53.31;95407.09;5135308;27;20191;-52
2023/01/07 09:25:34;;;;;;;18.03;9.20;;;;;;;16.59;53.22;95386.69;5134091;27;20796;-46
2023/01/07 09:28:01;;;;;;;13.93;9.03;;;;;;;16.40;53.18;95363.72;5133667;27;20625;-46
2023/01/07 09:30:28;;;;;;;12.83;8.50;;;;;;;16.49;53.37;95393.75;5132743;27;20256;-48
2023/01/07 09:32:56;;;;;;;13.60;9.33;;;;;;;16.41;53.17;95388.59;5133159;27;20192;-45
2023/01/07 09:35:23;;;;;;;14.47;8.53;;;;;;;16.31;53.36;95381.75;5132818;27;20196;-45
2023/01/07 09:37:50;;;;;;;12.17;8.20;;;;;;;16.29;53.38;95383.69;5133126;27;20582;-46
2023/01/07 09:40:24;;;;;;;14.87;8.80;;;;;;;16.23;53.26;95375.75;5132819;27;20224;-46
2023/01/07 09:42:58;;;;;;;13.97;9.40;;;;;;;16.17;53.25;95366.88;5132860;27;20582;-46
2023/01/07 09:45:29;;;;;;;13.33;8.83;;;;;;;16.11;53.21;95362.34;5132678;27;20283;-46
2023/01/07 09:47:59;;;;;;;14.50;9.00;;;;;;;16.00;53.31;95342.78;5132730;27;20300;-46
2023/01/07 09:50:44;;;;;;;13.67;8.50;;;;;;;15.84;53.30;95324.63;5133221;27;20575;-46
2023/01/07 09:53:14;;;;;;;16.73;9.47;;;;;;;15.98;53.11;95344.72;5132797;27;20725;-48
2023/01/07 09:55:43;;;;;;;14.63;9.37;;;;;;;15.94;53.17;95342.59;5132897;27;20187;-45
2023/01/07 09:58:16;;;;;;;16.20;9.97;;;;;;;15.92;53.17;95334.19;5132782;27;20192;-46
2023/01/07 10:00:55;;;;;;;14.40;9.30;;;;;;;15.90;53.34;95333.53;5132656;27;20184;-47
2023/01/07 10:03:32;;;;;;;13.80;9.30;;;;;;;15.88;53.17;95330.28;5132638;27;20214;-46
2023/01/07 10:06:09;;;;;;;12.97;9.70;;;;;;;15.87;53.21;95323.53;5132797;27;20180;-45
2023/01/07 10:08:47;;;;;;;15.17;10.30;;;;;;;15.86;53.15;95325.31;5132079;27;20261;-45
2023/01/07 10:11:30;;;;;;;12.10;8.93;;;;;;;15.85;53.08;95308.22;5132343;27;20180;-47
2023/01/07 10:14:24;;;;;;;13.97;9.00;;;;;;;15.86;53.07;95309.03;5132480;27;20188;-45
2023/01/07 10:16:59;;;;;;;18.30;9.03;;;;;;;15.80;53.11;95300.94;5132461;27;20202;-46
2023/01/07 10:19:35;;;;;;;14.53;9.30;;;;;;;15.86;52.99;95309.81;5132690;27;20263;-46
2023/01/07 10:22:09;;;;;;;15.53;9.73;;;;;;;15.89;53.08;95301.78;5132051;27;20253;-45
2023/01/07 10:24:42;;;;;;;16.23;10.63;;;;;;;15.89;52.94;95304.38;5132492;27;20188;-45
2023/01/07 10:27:12;;;;;;;14.20;9.83;;;;;;;15.89;52.87;95295.78;5131942;27;20196;-46
2023/01/07 10:29:44;;;;;;;17.43;10.03;;;;;;;15.93;52.86;95291.94;5131946;27;20177;-46
2023/01/07 10:32:15;;;;;;;14.07;10.27;;;;;;;15.94;52.72;95291.00;5131669;27;20279;-45
2023/01/07 10:34:46;;;;;;;14.97;10.17;;;;;;;15.95;52.58;95284.88;5132054;27;20180;-45
2023/01/07 10:37:22;;;;;;;14.30;9.93;;;;;;;15.99;52.59;95281.81;5131475;27;20225;-46
2023/01/07 10:39:58;;;;;;;12.03;9.57;;;;;;;15.99;52.65;95266.34;5131782;27;20224;-46
2023/01/07 10:42:31;;;;;;;13.60;9.70;;;;;;;15.98;52.62;95261.34;5131381;27;20200;-47
2023/01/07 10:45:20;;;;;;;13.70;9.23;;;;;;;16.08;52.33;95268.94;5131671;27;20188;-45
2023/01/07 10:48:28;;;;;;;15.43;10.33;;;;;;;16.11;52.42;95260.91;5131443;27;20265;-45
2023/01/07 10:51:05;;;;;;;14.77;10.23;;;;;;;15.99;52.29;95237.16;5067915;28;20272;-49
2023/01/07 10:53:43;;;;;;;15.73;9.70;;;;;;;16.11;52.17;95242.84;5068039;28;20730;-45
2023/01/07 10:56:23;;;;;;;15.43;10.20;;;;;;;16.17;52.22;95255.91;5067646;28;20659;-44
2023/01/07 10:58:50;;;;;;;15.40;9.37;;;;;;;16.20;52.37;95253.00;5067634;28;20185;-45
2023/01/07 11:01:24;;;;;;;12.57;8.60;;;;;;;16.24;52.15;95243.19;5067521;28;20194;-45
2023/01/07 11:03:53;;;;;;;18.47;9.87;;;;;;;16.26;52.01;95242.03;5067496;28;20224;-46
2023/01/07 11:06:30;;;;;;;15.67;10.03;;;;;;;16.30;52.01;95251.09;5067558;28;20606;-45
2023/01/07 11:08:57;;;;;;;15.43;9.07;;;;;;;16.34;51.85;95237.88;5067565;28;20593;-47
2023/01/07 11:11:24;;;;;;;14.10;9.03;;;;;;;16.25;52.07;95214.63;5067754;28;20195;-47
2023/01/07 11:13:58;;;;;;;14.53;9.37;;;;;;;16.39;51.95;95227.88;5067692;28;20667;-45
2023/01/07 11:16:28;;;;;;;13.07;9.07;;;;;;;16.41;51.83;95223.38;5067655;28;20183;-46
2023/01/07 11:19:00;;;;;;;11.60;8.77;;;;;;;16.44;51.86;95225.59;5067640;28;20670;-52
2023/01/07 11:21:37;;;;;;;11.07;8.50;;;;;;;16.46;51.67;95227.06;5067614;28;20190;-47
2023/01/07 11:24:31;;;;;;;14.00;8.60;;;;;;;16.37;51.61;95199.66;5067069;28;20289;-45
2023/01/07 11:27:04;;;;;;;11.60;8.47;;;;;;;16.52;51.58;95208.34;5084030;27;20196;-45
2023/01/07 11:29:37;;;;;;;11.17;7.77;;;;;;;16.53;51.64;95204.78;5130795;27;20242;-45
2023/01/07 11:32:04;;;;;;;12.73;8.10;;;;;;;16.57;51.74;95207.84;5130363;27;20224;-48
2023/01/07 11:34:34;;;;;;;15.03;9.13;;;;;;;16.59;51.56;95198.19;5130382;27;20232;-46
2023/01/07 11:37:04;;;;;;;13.37;8.10;;;;;;;16.61;51.45;95195.44;5130778;27;20617;-45
2023/01/07 11:39:33;;;;;;;14.70;8.27;;;;;;;16.58;51.37;95188.00;5130651;27;20236;-46
2023/01/07 11:42:37;;;;;;;13.87;8.93;;;;;;;16.55;51.56;95184.00;5131177;27;20188;-46
2023/01/07 11:45:07;;;;;;;13.30;8.03;;;;;;;16.64;51.35;95187.38;5130571;27;20556;-47
2023/01/07 11:47:34;;;;;;;14.87;8.43;;;;;;;16.67;51.46;95181.88;5130025;27;20584;-48